Shanghai Dawn — 3FMN2 — position and weather

sailwx.info

Track history (hours):
 
Tides and Currents Weather Stations Pressure Air Temp Water Temp Dewpoint Dewpoint Depression Visibility Wind Speed Wind Dir Waves Ship Positions

Shanghai Dawn

Last reported at 2015-May-16 09:09 UTC. Time now 2015-May-28 05:56 UTC.
Position N 34°00' E 124°42'.
Warning: this ship's position is 11 days out of date.

Length 246 m; draft 11.5 m.

Type: Ship. MMSI: 356075000.

Date/timePositionNaut miles runAvg speedWind from/ knotsBaromVisibWave heightAir tempDewpointWater temp
2015-May-16 09:09N 34°00' E 124°42'1111.5
2015-May-16 08:11N 33°49' E 124°40'711.5
2015-May-16 07:33N 33°42' E 124°38'1211.7
2015-May-16 06:33N 33°31' E 124°35'1212.1
2015-May-16 05:33N 33°19' E 124°32'1212.1
2015-May-16 04:33N 33°07' E 124°29'1212.3
2015-May-16 03:33N 32°55' E 124°26'1413.0
2015-May-16 02:28N 32°41' E 124°23'1213.4
2015-May-16 01:33N 32°29' E 124°19'1313.5
2015-May-16 00:33N 32°16' E 124°16'1313.1
2015-May-15 23:33N 32°03' E 124°13'1212.2
2015-May-15 22:33N 31°51' E 124°10'  
Track history (hours):
 
Tides and Currents Weather Stations Pressure Air Temp Water Temp Dewpoint Dewpoint Depression Visibility Wind Speed Wind Dir Waves Ship Positions

Shanghai Dawn

Last reported at 2015-May-16 09:09 UTC. Time now 2015-May-28 05:56 UTC.
Position N 34°00' E 124°42'.
Warning: this ship's position is 11 days out of date.

Length 246 m; draft 11.5 m.

Type: Ship. MMSI: 356075000.

Date/timePositionNaut miles runAvg speedWind from/ knotsBaromVisibWave heightAir tempDewpointWater temp
2015-May-16 09:09N 34°00' E 124°42'1111.5
2015-May-16 08:11N 33°49' E 124°40'711.5
2015-May-16 07:33N 33°42' E 124°38'1211.7
2015-May-16 06:33N 33°31' E 124°35'1212.1
2015-May-16 05:33N 33°19' E 124°32'1212.1
2015-May-16 04:33N 33°07' E 124°29'1212.3
2015-May-16 03:33N 32°55' E 124°26'1413.0
2015-May-16 02:28N 32°41' E 124°23'1213.4
2015-May-16 01:33N 32°29' E 124°19'1313.5
2015-May-16 00:33N 32°16' E 124°16'1313.1
2015-May-15 23:33N 32°03' E 124°13'1212.2
2015-May-15 22:33N 31°51' E 124°10'  

Dump ship's entire track history